Flight Track Log - Related Links

Times and Time Zones

All times are in EDT time to prevent confusion due to time zone crossing. See the AMF706 flight status page for this flight to view local times or setup timezone preferences in your user account.

Time Position Orientation Groundspeed Altitude Reporting Facility
EDT Latitude Longitude Course Direction KTS MPH feet Rate Location/Type
Sat 10:53:28 AM 39.0500 -84.6667 270° West 142 163 1,300  Level Cincinnati TRACON
Sat 10:53:46 AM 39.0500 -84.6833 270° West 143 165 1,800 2,077 Climbing Cincinnati TRACON
Sat 10:54:46 AM 39.0500 -84.7333 270° West 156 180 4,000 2,150 Climbing Cincinnati TRACON
Sat 10:55:46 AM 39.0500 -84.8000 270° West 162 186 6,100 1,750 Climbing Cincinnati TRACON
Sat 10:56:46 AM 39.0833 -84.8333 322° Northwest 204 235 7,500 1,300 Climbing Cincinnati TRACON
Sat 10:57:46 AM 39.1333 -84.8167 14° North 218 251 8,700 1,300 Climbing Cincinnati TRACON
Sat 10:58:46 AM 39.1667 -84.7500 57° Northeast 211 243 10,100 1,293 Climbing Cincinnati TRACON
Sat 11:00:47 AM 39.2253 -84.6311 58° Northeast 212 244 12,600 1,213 Climbing Indianapolis Center
Sat 11:01:49 AM 39.2575 -84.5689 56° Northeast 207 238 13,800 927 Climbing Indianapolis Center
Sat 11:02:50 AM 39.3117 -84.5067 42° Northeast 219 252 14,500 634 Climbing Indianapolis Center
Sat 11:03:52 AM 39.3628 -84.4519 40° Northeast 233 268 15,100 732 Climbing Indianapolis Center
Sat 11:04:53 AM 39.4206 -84.4108 29° Northeast 234 269 16,000 829 Climbing Indianapolis Center
Sat 11:05:55 AM 39.4758 -84.3694 30° Northeast 229 264 16,800 780 Climbing Indianapolis Center
Sat 11:06:56 AM 39.5297 -84.3267 31° Northeast 225 259 17,600 585 Climbing Indianapolis Center
Sat 11:07:58 AM 39.5850 -84.2842 31° Northeast 227 261 18,000 290 Climbing Indianapolis Center
Sat 11:09:00 AM 39.6247 -84.2156 53° Northeast 236 272 18,200 341 Climbing Indianapolis Center
Sat 11:10:01 AM 39.6511 -84.1339 67° East 249 287 18,700 341 Climbing Indianapolis Center
Sat 11:11:03 AM 39.6603 -84.0453 82° East 248 285 18,900 146 Climbing Indianapolis Center
Sat 11:12:04 AM 39.6706 -83.9528 82° East 257 296 19,000 49 Climbing Indianapolis Center
Sat 11:13:06 AM 39.6822 -83.8583 81° East 263 303 19,000  Level Indianapolis Center
Sat 11:14:07 AM 39.6978 -83.7481 80° East 264 304 19,000  Level Indianapolis Center
Sat 11:15:09 AM 39.7114 -83.6578 79° East 258 297 19,000  Level Indianapolis Center
Sat 11:16:10 AM 39.7239 -83.5686 80° East 252 290 19,000  Level Indianapolis Center
Sat 11:17:12 AM 39.7361 -83.4803 80° East 252 290 19,000  Level Indianapolis Center
Sat 11:18:13 AM 39.7472 -83.3925 81° East 249 287 19,000  Level Indianapolis Center
Sat 11:19:15 AM 39.7592 -83.3047 80° East 248 285 19,000  Level Indianapolis Center
Sat 11:20:16 AM 39.7706 -83.2142 81° East 252 290 19,000  Level Indianapolis Center
Sat 11:21:17 AM 39.7850 -83.1111 80° East 249 287 19,000  Level Indianapolis Center
Sat 11:22:19 AM 39.7978 -83.0219 79° East 250 288 19,000  Level Indianapolis Center
Sat 11:23:20 AM 39.8100 -82.9322 80° East 250 288 19,000  Level Indianapolis Center
Sat 11:24:22 AM 39.8219 -82.8428 80° East 247 284 19,000  Level Indianapolis Center
Sat 11:25:23 AM 39.8328 -82.7539 81° East 248 285 19,000  Level Indianapolis Center
Sat 11:26:25 AM 39.8436 -82.6639 81° East 251 289 19,000  Level Indianapolis Center
Sat 11:27:26 AM 39.8547 -82.5739 81° East 252 290 19,000  Level Indianapolis Center
Sat 11:28:27 AM 39.8661 -82.4833 81° East 251 289 19,000  Level Indianapolis Center
Sat 11:29:29 AM 39.8786 -82.3922 80° East 253 291 19,000  Level Indianapolis Center
Sat 11:30:30 AM 39.8900 -82.3025 81° East 251 289 19,000  Level Indianapolis Center
Sat 11:31:32 AM 39.9014 -82.2119 81° East 251 289 19,000  Level Indianapolis Center
Sat 11:32:33 AM 39.9125 -82.1219 81° East 251 289 19,000  Level Indianapolis Center
Sat 11:33:35 AM 39.9236 -82.0319 81° East 250 288 19,000  Level Indianapolis Center
Sat 11:34:36 AM 39.9328 -81.9256 84° East 250 288 19,000  Level Indianapolis Center
Sat 11:35:37 AM 39.9483 -81.8350 77° East 253 291 19,000 49 Level Indianapolis Center
Sat 11:36:39 AM 39.9653 -81.7478 76° East 248 285 19,100 49 Climbing Indianapolis Center
Sat 11:37:40 AM 39.9808 -81.6625 77° East 251 289 19,100 -49 Level Indianapolis Center
Sat 11:38:42 AM 39.9981 -81.5750 76° East 249 287 19,000 -49 Descending Indianapolis Center
Sat 11:39:43 AM 40.0161 -81.4875 75° East 248 285 19,000  Level Indianapolis Center
Sat 11:40:44 AM 40.0342 -81.4000 75° East 249 287 19,000  Level Indianapolis Center
Sat 11:41:46 AM 40.0517 -81.3117 75° East 249 287 19,000  Level Indianapolis Center
Sat 11:42:47 AM 40.0686 -81.2242 76° East 248 285 19,000  Level Indianapolis Center
Sat 11:43:48 AM 40.0897 -81.1217 75° East 248 285 19,000  Level Indianapolis Center
Sat 11:44:09 AM 40.0994 -81.0989 61° Northeast 241 277 19,000  Level Cleveland Center
Sat 11:45:09 AM 40.1206 -81.0119 72° East 241 277 19,000  Level Cleveland Center
Sat 11:46:09 AM 40.1439 -80.9281 70° East 246 283 19,000  Level Cleveland Center
Sat 11:47:09 AM 40.1669 -80.8467 70° East 246 283 19,000  Level Cleveland Center
Sat 11:48:09 AM 40.1922 -80.7597 69° East 246 283 19,000  Level Cleveland Center
Sat 11:49:09 AM 40.2150 -80.6783 70° East 246 283 19,000  Level Cleveland Center
Sat 11:50:09 AM 40.2361 -80.5939 72° East 246 283 19,000  Level Cleveland Center
Sat 11:51:09 AM 40.2611 -80.5069 69° East 246 283 19,000  Level Cleveland Center
Sat 11:52:09 AM 40.2858 -80.4253 68° East 246 283 19,000  Level Cleveland Center
Sat 11:53:09 AM 40.3108 -80.3325 71° East 242 278 19,000  Level Cleveland Center
Sat 11:54:09 AM 40.3294 -80.2589 72° East 242 278 19,000  Level Cleveland Center
Sat 11:55:09 AM 40.3542 -80.1772 68° East 242 278 19,000  Level Cleveland Center
Sat 11:56:09 AM 40.3747 -80.0925 72° East 242 278 19,000  Level Cleveland Center
Sat 11:57:09 AM 40.3992 -80.0133 68° East 242 278 19,000  Level Cleveland Center
Sat 11:58:09 AM 40.4258 -79.9203 69° East 237 273 19,000  Level Cleveland Center
Sat 11:59:09 AM 40.4503 -79.8383 69° East 237 273 19,000  Level Cleveland Center
Sat 12:00:09 PM 40.4728 -79.7533 71° East 237 273 19,000  Level Cleveland Center
Sat 12:01:09 PM 40.4950 -79.6711 70° East 237 273 19,000  Level Cleveland Center
Sat 12:02:09 PM 40.5194 -79.5889 69° East 237 273 19,000  Level Cleveland Center
Sat 12:03:09 PM 40.5417 -79.5067 70° East 237 273 19,000  Level Cleveland Center
Sat 12:04:09 PM 40.5658 -79.4214 70° East 232 267 19,000  Level Cleveland Center
Sat 12:05:09 PM 40.5878 -79.3392 71° East 232 267 19,000  Level Cleveland Center
Sat 12:06:09 PM 40.6097 -79.2567 71° East 232 267 19,000  Level Cleveland Center
Sat 12:07:09 PM 40.6339 -79.1714 69° East 237 273 19,000  Level Cleveland Center
Sat 12:08:09 PM 40.6556 -79.0889 71° East 237 273 19,000  Level Cleveland Center
Sat 12:09:09 PM 40.6797 -79.0089 68° East 237 273 19,000  Level Cleveland Center
Sat 12:10:09 PM 40.7033 -78.9178 71° East 237 273 19,000  Level Cleveland Center
Sat 12:11:09 PM 40.7250 -78.8350 71° East 237 273 19,000  Level Cleveland Center
Sat 12:13:16 PM 40.7711 -78.6664 70° East 248 285 19,000  Level New York Center
Sat 12:14:18 PM 40.7958 -78.5761 70° East 248 285 19,000  Level New York Center
Sat 12:15:16 PM 40.8181 -78.4908 71° East 243 280 19,000  Level New York Center
Sat 12:16:16 PM 40.8403 -78.4056 71° East 243 280 19,000  Level New York Center
Sat 12:17:16 PM 40.8661 -78.3258 67° East 243 280 19,000  Level New York Center
Sat 12:18:17 PM 40.8881 -78.2433 71° East 243 280 19,000  Level New York Center
Sat 12:19:17 PM 40.9119 -78.1608 69° East 243 280 19,000  Level New York Center
Sat 12:20:18 PM 40.9358 -78.0808 68° East 243 280 19,000  Level New York Center
Sat 12:21:18 PM 40.9594 -78.0008 69° East 243 280 19,000  Level New York Center
Sat 12:22:18 PM 40.9833 -77.9181 69° East 243 280 19,000  Level New York Center
Sat 12:23:16 PM 41.0072 -77.8325 70° East 243 280 19,000  Level New York Center
Sat 12:24:16 PM 41.0300 -77.7608 67° East 238 274 19,000  Level New York Center
Sat 12:25:17 PM 41.0558 -77.6781 67° East 238 274 19,000  Level New York Center
Sat 12:26:16 PM 41.0814 -77.5981 67° East 238 274 19,000  Level New York Center
Sat 12:27:16 PM 41.1069 -77.5153 68° East 238 274 19,000  Level New York Center
Sat 12:28:17 PM 41.1344 -77.4325 66° East 238 274 19,000  Level New York Center
Sat 12:29:17 PM 41.1606 -77.3386 70° East 243 280 19,000  Level New York Center
Sat 12:30:17 PM 41.1878 -77.2586 66° East 243 280 19,000  Level New York Center
Sat 12:31:18 PM 41.2133 -77.1753 68° East 243 280 19,000  Level New York Center
Sat 12:32:16 PM 41.2406 -77.0925 66° East 243 280 19,000  Level New York Center
Sat 12:33:17 PM 41.2661 -77.0064 68° East 243 280 19,000 -246 Level New York Center
Sat 12:34:18 PM 41.2956 -76.9208 65° Northeast 243 280 18,500 -504 Descending New York Center
Sat 12:35:16 PM 41.3233 -76.8267 69° East 248 285 18,000 -403 Descending New York Center
Sat 12:36:17 PM 41.3550 -76.7356 65° Northeast 261 300 17,700 -400 Descending New York Center
Sat 12:37:16 PM 41.3886 -76.6444 64° Northeast 272 313 17,200 -347 Descending New York Center
Sat 12:38:18 PM 41.4200 -76.5558 65° Northeast 272 313 17,000 -99 Descending New York Center
Sat 12:39:17 PM 41.4533 -76.4703 63° Northeast 267 307 17,000  Level New York Center
Sat 12:40:17 PM 41.4800 -76.3922 65° Northeast 262 302 17,000  Level New York Center
Sat 12:41:18 PM 41.5053 -76.3000 70° East 257 296 17,000  Level New York Center
Sat 12:42:18 PM 41.5222 -76.1989 77° East 252 290 17,000  Level New York Center
Sat 12:43:19 PM 41.5389 -76.1089 76° East 252 290 17,000  Level New York Center
Sat 12:44:18 PM 41.5556 -76.0158 77° East 260 299 17,000  Level New York Center
Sat 12:45:19 PM 41.5697 -75.9311 77° East 255 293 17,000  Level New York Center
Sat 12:46:16 PM 41.5861 -75.8408 76° East 255 293 17,000  Level New York Center
Sat 12:47:17 PM 41.6028 -75.7394 78° East 255 293 17,000  Level New York Center
Sat 12:48:17 PM 41.6189 -75.6544 76° East 255 293 17,000  Level New York Center
Sat 12:49:17 PM 41.6356 -75.5531 78° East 255 293 17,000  Level New York Center
Sat 12:50:18 PM 41.6414 -75.4564 85° East 255 293 17,000 39 Level New York Center
Sat 12:51:52 PM 41.6514 -75.2964 85° East 261 300 17,100 39 Climbing Boston Center
Sat 12:52:52 PM 41.6558 -75.2019 86° East 261 300 17,100  Level Boston Center
Sat 12:53:52 PM 41.6625 -75.1078 85° East 261 300 17,100 -50 Level Boston Center
Sat 12:54:52 PM 41.6647 -75.0050 88° East 256 295 17,000 -50 Descending Boston Center
Sat 12:55:52 PM 41.6689 -74.9081 87° East 256 295 17,000 50 Level Boston Center
Sat 12:56:52 PM 41.6772 -74.8111 83° East 256 295 17,100  Climbing Boston Center
Sat 12:57:52 PM 41.7042 -74.7258 67° East 256 295 17,000 -100 Descending Boston Center
Sat 12:58:52 PM 41.7350 -74.6378 65° Northeast 256 295 16,900 -50 Descending Boston Center
Sat 12:59:52 PM 41.7639 -74.5525 66° East 251 289 16,900  Level Boston Center
Sat 01:00:52 PM 41.7903 -74.4644 68° East 251 289 16,900 50 Level Boston Center
Sat 01:01:52 PM 41.8169 -74.3733 69° East 251 289 17,000 45 Climbing Boston Center
Sat 01:03:04 PM 41.8414 -74.2850 70° East 251 289 17,000  Level Boston Center
Sat 01:04:04 PM 41.8681 -74.1881 70° East 246 283 17,000  Level Boston Center
Sat 01:05:04 PM 41.8964 -74.0994 67° East 246 283 17,000  Level Boston Center
Sat 01:06:04 PM 41.9250 -73.9997 69° East 251 289 17,000  Level Boston Center
Sat 01:07:04 PM 41.9489 -73.9194 68° East 251 289 17,000  Level Boston Center
Sat 01:08:04 PM 41.9792 -73.8253 67° East 251 289 17,000  Level Boston Center
Sat 01:09:04 PM 42.0053 -73.7447 66° East 251 289 17,000 -50 Level Boston Center
Sat 01:10:04 PM 42.0375 -73.6533 65° Northeast 251 289 16,900  Descending Boston Center
Sat 01:11:04 PM 42.0656 -73.5700 66° East 251 289 17,000 -100 Climbing Boston Center
Sat 01:12:04 PM 42.0933 -73.4836 67° East 251 289 16,700 -350 Descending Boston Center
Sat 01:13:04 PM 42.1233 -73.3917 66° East 256 295 16,300 -400 Descending Boston Center
Sat 01:14:04 PM 42.1617 -73.2917 63° Northeast 256 295 15,900 -450 Descending Boston Center
Sat 01:15:04 PM 42.1956 -73.2050 62° Northeast 256 295 15,400 -400 Descending Boston Center
Sat 01:16:04 PM 42.2192 -73.1325 66° East 256 295 15,100 -200 Descending Boston Center
Sat 01:17:04 PM 42.2550 -73.0264 65° Northeast 256 295 15,000 -100 Descending Boston Center
Sat 01:18:04 PM 42.2847 -72.9369 66° East 256 295 14,900  Descending Boston Center
Sat 01:19:04 PM 42.3122 -72.8500 67° East 256 295 15,000 50 Climbing Boston Center
Sat 01:20:04 PM 42.3353 -72.7828 65° Northeast 256 295 15,000  Level Boston Center
Sat 01:21:04 PM 42.3731 -72.6761 64° Northeast 256 295 15,000  Level Boston Center
Sat 01:22:04 PM 42.3983 -72.6003 66° East 256 295 15,000 -50 Level Boston Center
Sat 01:23:04 PM 42.4253 -72.5103 68° East 251 289 14,900 -150 Descending Boston Center
Sat 01:24:04 PM 42.4503 -72.4175 70° East 256 295 14,700 -550 Descending Boston Center
Sat 01:25:04 PM 42.4794 -72.3247 67° East 261 300 13,800 -950 Descending Boston Center
Sat 01:26:04 PM 42.5064 -72.2147 72° East 273 314 12,800 -1,000 Descending Boston Center
Sat 01:27:04 PM 42.5292 -72.1133 73° East 273 314 11,800 -1,050 Descending Boston Center
Sat 01:28:04 PM 42.5392 -72.0117 82° East 268 308 10,700 -1,100 Descending Boston Center
Sat 01:29:04 PM 42.5325 -71.9047 95° East 278 320 9,600 -1,150 Descending Boston Center
Sat 01:30:04 PM 42.5278 -71.8033 94° East 272 313 8,400 -1,300 Descending Boston Center
Sat 01:31:04 PM 42.5231 -71.7047 94° East 272 313 7,000 -1,350 Descending Boston Center
Sat 01:32:04 PM 42.5203 -71.6203 93° East 244 281 5,700 -944 Descending Boston Center
Sat 01:32:52 PM 42.5167 -71.5500 94° East 215 247 5,300 -1,000 Descending KA90
Sat 01:33:52 PM 42.5000 -71.4667 105° East 205 236 3,900 -1,143 Descending KA90
Sat 01:34:58 PM 42.5000 -71.3833 90° East 212 244 2,900 -762 Descending KA90
Sat 01:35:58 PM 42.5000 -71.3167 90° East 186 214 2,300 -684 Descending KA90
Sat 01:36:52 PM 42.5000 -71.2667 90° East 146 168 1,600 -881 Descending KA90
Sat 01:37:47 PM 42.4833 -71.2500 144° Southeast 114 131 700 4,188 Descending KA90
Sat 01:40:04 PM 42.4169 -71.2450 177° South 92 106 15,000 4,355 Climbing Boston Center
Sat 01:41:04 PM 42.3900 -71.2397 172° South 92 106 15,000  Level Boston Center
Sat 01:42:04 PM 42.3753 -71.2344 165° South 92 106 15,000  Level Boston Center
Sat 01:45:00 PM 42.4667 -71.2833 340° North  Level FlightAware Approximate
Sat 01:52:00 PM 42.4699 -71.2890 340° North  Level Estimated

Login

Don't have an account? Register now (free) for customized features, flight alerts, and more!